TimeMDT,TemperatureF,Dew PointF,Humidity,Sea Level PressureIn,VisibilityMPH,Wind Direction,Wind SpeedMPH,Gust SpeedMPH,PrecipitationIn,Events,Conditions,WindDirDegrees,DateUTC
12:53 AM,17.1,6.1,62,30.20,10.0,NW,27.6,35.7,N/A,,Clear,310,2013-04-10 06:53:00
1:53 AM,17.1,6.1,62,30.21,10.0,WNW,18.4,26.5,N/A,,Mostly Cloudy,300,2013-04-10 07:53:00
2:53 AM,18.0,7.0,62,30.21,10.0,West,12.7,-,N/A,,Overcast,280,2013-04-10 08:53:00
3:53 AM,18.0,8.1,65,30.22,10.0,West,4.6,-,N/A,,Overcast,260,2013-04-10 09:53:00
4:53 AM,17.1,6.1,62,30.23,10.0,WNW,16.1,-,N/A,,Overcast,300,2013-04-10 10:53:00
5:53 AM,17.1,3.9,56,30.25,10.0,WNW,12.7,-,N/A,,Overcast,290,2013-04-10 11:53:00
6:53 AM,16.0,6.1,65,30.27,10.0,West,12.7,-,N/A,,Overcast,280,2013-04-10 12:53:00
7:53 AM,16.0,8.1,71,30.29,10.0,SSW,9.2,-,N/A,,Mostly Cloudy,210,2013-04-10 13:53:00
8:53 AM,18.0,8.1,65,30.27,10.0,SSE,8.1,-,N/A,,Overcast,160,2013-04-10 14:53:00
9:53 AM,19.9,8.1,60,30.27,10.0,Calm,Calm,-,N/A,,Clear,0,2013-04-10 15:53:00
10:53 AM,23.0,10.0,58,30.27,10.0,Calm,Calm,-,N/A,,Clear,0,2013-04-10 16:53:00
11:53 AM,25.0,10.9,55,30.25,10.0,Variable,3.5,-,N/A,,Scattered Clouds,0,2013-04-10 17:53:00
12:53 PM,30.9,15.1,52,30.19,10.0,NE,3.5,-,N/A,,Scattered Clouds,50,2013-04-10 18:53:00
1:53 PM,33.1,17.1,52,30.15,10.0,SSW,4.6,-,N/A,,Clear,200,2013-04-10 19:53:00
2:53 PM,36.0,19.0,50,30.11,10.0,WNW,11.5,18.4,N/A,,Overcast,290,2013-04-10 20:53:00
3:53 PM,39.9,17.1,40,30.07,10.0,WNW,11.5,18.4,N/A,,Mostly Cloudy,300,2013-04-10 21:53:00
4:53 PM,39.9,16.0,38,30.05,10.0,West,11.5,19.6,N/A,,Clear,270,2013-04-10 22:53:00
5:53 PM,39.9,12.0,32,30.06,10.0,WNW,11.5,-,N/A,,Partly Cloudy,300,2013-04-10 23:53:00
6:53 PM,39.9,12.9,33,30.08,10.0,WNW,13.8,-,N/A,,Clear,290,2013-04-11 00:53:00
7:53 PM,37.0,14.0,39,30.09,10.0,WNW,6.9,-,N/A,,Clear,300,2013-04-11 01:53:00
8:53 PM,30.9,19.9,64,30.12,10.0,SE,3.5,-,N/A,,Mostly Cloudy,140,2013-04-11 02:53:00
9:53 PM,32.0,21.9,66,30.12,10.0,SSE,4.6,-,N/A,,Overcast,160,2013-04-11 03:53:00
10:53 PM,33.1,19.0,56,30.09,10.0,Variable,5.8,-,N/A,,Overcast,0,2013-04-11 04:53:00
11:53 PM,34.0,19.0,54,30.08,10.0,Calm,Calm,-,N/A,,Overcast,0,2013-04-11 05:53:00